sensor_id;sensor_type;location;lat;lon;timestamp;P1;durP1;ratioP1;P2;durP2;ratioP2
2305;SDS011;1161;51.922;8.896;2023-05-10T00:01:59;25.33;;;16.27;;
2305;SDS011;1161;51.922;8.896;2023-05-10T00:04:27;24.07;;;15.30;;
2305;SDS011;1161;51.922;8.896;2023-05-10T00:06:54;23.07;;;12.83;;
2305;SDS011;1161;51.922;8.896;2023-05-10T00:09:20;20.67;;;11.90;;
2305;SDS011;1161;51.922;8.896;2023-05-10T00:11:47;17.00;;;11.50;;
2305;SDS011;1161;51.922;8.896;2023-05-10T00:14:14;25.33;;;15.17;;
2305;SDS011;1161;51.922;8.896;2023-05-10T00:16:40;15.77;;;10.67;;
2305;SDS011;1161;51.922;8.896;2023-05-10T00:19:07;17.53;;;11.60;;
2305;SDS011;1161;51.922;8.896;2023-05-10T00:21:35;28.30;;;15.33;;
2305;SDS011;1161;51.922;8.896;2023-05-10T00:24:01;20.93;;;12.90;;
2305;SDS011;1161;51.922;8.896;2023-05-10T00:26:28;22.80;;;15.07;;
2305;SDS011;1161;51.922;8.896;2023-05-10T00:28:55;25.90;;;15.17;;
2305;SDS011;1161;51.922;8.896;2023-05-10T00:31:22;18.43;;;11.67;;
2305;SDS011;1161;51.922;8.896;2023-05-10T00:33:48;20.77;;;13.00;;
2305;SDS011;1161;51.922;8.896;2023-05-10T00:36:15;16.50;;;10.90;;
2305;SDS011;1161;51.922;8.896;2023-05-10T00:38:43;14.20;;;10.23;;
2305;SDS011;1161;51.922;8.896;2023-05-10T00:41:10;15.17;;;10.30;;
2305;SDS011;1161;51.922;8.896;2023-05-10T00:43:37;19.70;;;11.10;;
2305;SDS011;1161;51.922;8.896;2023-05-10T00:46:04;21.70;;;12.30;;
2305;SDS011;1161;51.922;8.896;2023-05-10T00:48:31;12.93;;;9.67;;
2305;SDS011;1161;51.922;8.896;2023-05-10T00:50:58;17.27;;;11.30;;
2305;SDS011;1161;51.922;8.896;2023-05-10T00:53:24;19.83;;;12.17;;
2305;SDS011;1161;51.922;8.896;2023-05-10T00:55:52;18.43;;;12.40;;
2305;SDS011;1161;51.922;8.896;2023-05-10T00:58:19;20.70;;;13.30;;
2305;SDS011;1161;51.922;8.896;2023-05-10T01:00:46;19.53;;;11.30;;
2305;SDS011;1161;51.922;8.896;2023-05-10T01:03:13;18.60;;;11.00;;
2305;SDS011;1161;51.922;8.896;2023-05-10T01:05:40;18.27;;;10.87;;
2305;SDS011;1161;51.922;8.896;2023-05-10T01:08:06;18.97;;;11.93;;
2305;SDS011;1161;51.922;8.896;2023-05-10T01:10:34;19.13;;;11.97;;
2305;SDS011;1161;51.922;8.896;2023-05-10T01:13:02;18.23;;;12.63;;
2305;SDS011;1161;51.922;8.896;2023-05-10T01:15:29;15.97;;;11.53;;
2305;SDS011;1161;51.922;8.896;2023-05-10T01:17:56;17.27;;;10.13;;
2305;SDS011;1161;51.922;8.896;2023-05-10T01:20:23;22.23;;;13.80;;
2305;SDS011;1161;51.922;8.896;2023-05-10T01:23:04;19.77;;;12.27;;
2305;SDS011;1161;51.922;8.896;2023-05-10T01:25:43;18.83;;;12.37;;
2305;SDS011;1161;51.922;8.896;2023-05-10T01:28:28;18.70;;;12.23;;
2305;SDS011;1161;51.922;8.896;2023-05-10T01:31:14;17.73;;;11.40;;
2305;SDS011;1161;51.922;8.896;2023-05-10T01:33:48;27.13;;;14.47;;
2305;SDS011;1161;51.922;8.896;2023-05-10T01:36:19;25.47;;;15.77;;
2305;SDS011;1161;51.922;8.896;2023-05-10T01:38:51;32.23;;;18.90;;
2305;SDS011;1161;51.922;8.896;2023-05-10T01:41:23;32.03;;;18.20;;
2305;SDS011;1161;51.922;8.896;2023-05-10T01:43:55;29.67;;;17.47;;
2305;SDS011;1161;51.922;8.896;2023-05-10T01:46:24;28.17;;;18.30;;
2305;SDS011;1161;51.922;8.896;2023-05-10T01:48:56;37.00;;;20.07;;
2305;SDS011;1161;51.922;8.896;2023-05-10T01:51:24;37.40;;;18.20;;
2305;SDS011;1161;51.922;8.896;2023-05-10T01:53:54;28.77;;;17.43;;
2305;SDS011;1161;51.922;8.896;2023-05-10T01:56:25;28.57;;;18.00;;
2305;SDS011;1161;51.922;8.896;2023-05-10T01:58:52;30.10;;;18.03;;
2305;SDS011;1161;51.922;8.896;2023-05-10T02:01:20;34.87;;;19.97;;
2305;SDS011;1161;51.922;8.896;2023-05-10T02:03:47;26.30;;;17.63;;
2305;SDS011;1161;51.922;8.896;2023-05-10T02:06:15;30.33;;;18.80;;
2305;SDS011;1161;51.922;8.896;2023-05-10T02:08:43;25.80;;;16.50;;
2305;SDS011;1161;51.922;8.896;2023-05-10T02:11:13;31.43;;;17.90;;
2305;SDS011;1161;51.922;8.896;2023-05-10T02:13:40;28.27;;;16.47;;
2305;SDS011;1161;51.922;8.896;2023-05-10T02:16:08;27.10;;;17.00;;
2305;SDS011;1161;51.922;8.896;2023-05-10T02:18:35;29.63;;;18.03;;
2305;SDS011;1161;51.922;8.896;2023-05-10T02:21:02;31.30;;;19.83;;
2305;SDS011;1161;51.922;8.896;2023-05-10T02:23:31;28.27;;;18.83;;
2305;SDS011;1161;51.922;8.896;2023-05-10T02:25:57;28.60;;;18.57;;
2305;SDS011;1161;51.922;8.896;2023-05-10T02:28:25;36.23;;;19.40;;
2305;SDS011;1161;51.922;8.896;2023-05-10T02:30:52;30.77;;;17.23;;
2305;SDS011;1161;51.922;8.896;2023-05-10T02:33:20;24.93;;;15.87;;
2305;SDS011;1161;51.922;8.896;2023-05-10T02:35:47;30.50;;;16.43;;
2305;SDS011;1161;51.922;8.896;2023-05-10T02:38:14;27.17;;;15.40;;
2305;SDS011;1161;51.922;8.896;2023-05-10T02:40:43;26.60;;;12.80;;
2305;SDS011;1161;51.922;8.896;2023-05-10T02:43:12;18.80;;;12.17;;
2305;SDS011;1161;51.922;8.896;2023-05-10T02:45:39;14.80;;;11.20;;
2305;SDS011;1161;51.922;8.896;2023-05-10T02:48:06;16.17;;;11.13;;
2305;SDS011;1161;51.922;8.896;2023-05-10T02:50:33;12.57;;;8.37;;
2305;SDS011;1161;51.922;8.896;2023-05-10T02:53:02;6.47;;;5.63;;
2305;SDS011;1161;51.922;8.896;2023-05-10T02:55:41;4.47;;;3.97;;
2305;SDS011;1161;51.922;8.896;2023-05-10T02:58:13;3.37;;;3.00;;
2305;SDS011;1161;51.922;8.896;2023-05-10T03:00:40;2.90;;;2.53;;
2305;SDS011;1161;51.922;8.896;2023-05-10T03:03:07;2.90;;;2.43;;
2305;SDS011;1161;51.922;8.896;2023-05-10T03:05:39;4.53;;;1.73;;
2305;SDS011;1161;51.922;8.896;2023-05-10T03:08:06;2.13;;;2.03;;
2305;SDS011;1161;51.922;8.896;2023-05-10T03:10:38;8.20;;;2.10;;
2305;SDS011;1161;51.922;8.896;2023-05-10T03:13:12;1.80;;;1.70;;
2305;SDS011;1161;51.922;8.896;2023-05-10T03:15:47;2.30;;;2.20;;
2305;SDS011;1161;51.922;8.896;2023-05-10T03:18:21;11.83;;;2.27;;
2305;SDS011;1161;51.922;8.896;2023-05-10T03:20:49;2.00;;;1.90;;
2305;SDS011;1161;51.922;8.896;2023-05-10T03:23:20;4.87;;;2.03;;
2305;SDS011;1161;51.922;8.896;2023-05-10T03:25:48;2.27;;;2.17;;
2305;SDS011;1161;51.922;8.896;2023-05-10T03:28:17;2.00;;;1.90;;
2305;SDS011;1161;51.922;8.896;2023-05-10T03:30:44;3.60;;;2.27;;
2305;SDS011;1161;51.922;8.896;2023-05-10T03:33:12;3.33;;;2.17;;
2305;SDS011;1161;51.922;8.896;2023-05-10T03:35:39;3.50;;;2.47;;
2305;SDS011;1161;51.922;8.896;2023-05-10T03:38:07;2.40;;;2.13;;
2305;SDS011;1161;51.922;8.896;2023-05-10T03:40:34;3.43;;;2.03;;
2305;SDS011;1161;51.922;8.896;2023-05-10T03:43:01;2.60;;;2.50;;
2305;SDS011;1161;51.922;8.896;2023-05-10T03:45:29;3.00;;;2.77;;
2305;SDS011;1161;51.922;8.896;2023-05-10T03:47:56;4.93;;;2.50;;
2305;SDS011;1161;51.922;8.896;2023-05-10T03:50:23;5.40;;;3.80;;
2305;SDS011;1161;51.922;8.896;2023-05-10T03:52:51;8.17;;;4.77;;
2305;SDS011;1161;51.922;8.896;2023-05-10T03:55:19;11.60;;;6.37;;
2305;SDS011;1161;51.922;8.896;2023-05-10T03:57:46;11.17;;;6.70;;
2305;SDS011;1161;51.922;8.896;2023-05-10T04:00:15;10.33;;;6.63;;
2305;SDS011;1161;51.922;8.896;2023-05-10T04:02:44;11.90;;;6.73;;
2305;SDS011;1161;51.922;8.896;2023-05-10T04:05:12;9.40;;;6.57;;
2305;SDS011;1161;51.922;8.896;2023-05-10T04:07:41;8.50;;;6.17;;
2305;SDS011;1161;51.922;8.896;2023-05-10T04:10:11;10.83;;;6.13;;
2305;SDS011;1161;51.922;8.896;2023-05-10T04:12:38;8.43;;;6.60;;
2305;SDS011;1161;51.922;8.896;2023-05-10T04:15:08;9.77;;;7.43;;
2305;SDS011;1161;51.922;8.896;2023-05-10T04:17:37;9.50;;;5.93;;
2305;SDS011;1161;51.922;8.896;2023-05-10T04:20:08;12.77;;;6.80;;
2305;SDS011;1161;51.922;8.896;2023-05-10T04:22:40;16.37;;;7.73;;
2305;SDS011;1161;51.922;8.896;2023-05-10T04:25:07;12.40;;;6.57;;
2305;SDS011;1161;51.922;8.896;2023-05-10T04:27:36;10.60;;;7.67;;
2305;SDS011;1161;51.922;8.896;2023-05-10T04:30:04;11.50;;;7.63;;
2305;SDS011;1161;51.922;8.896;2023-05-10T04:32:32;12.07;;;8.43;;
2305;SDS011;1161;51.922;8.896;2023-05-10T04:34:59;15.13;;;8.47;;
2305;SDS011;1161;51.922;8.896;2023-05-10T04:37:31;10.60;;;7.50;;
2305;SDS011;1161;51.922;8.896;2023-05-10T04:40:08;17.07;;;10.47;;
2305;SDS011;1161;51.922;8.896;2023-05-10T04:42:36;17.63;;;9.60;;
2305;SDS011;1161;51.922;8.896;2023-05-10T04:45:03;12.10;;;8.57;;
2305;SDS011;1161;51.922;8.896;2023-05-10T04:47:31;12.57;;;8.23;;
2305;SDS011;1161;51.922;8.896;2023-05-10T04:49:57;13.30;;;8.20;;
2305;SDS011;1161;51.922;8.896;2023-05-10T04:52:25;10.10;;;7.40;;
2305;SDS011;1161;51.922;8.896;2023-05-10T04:54:54;6.67;;;5.23;;
2305;SDS011;1161;51.922;8.896;2023-05-10T04:57:21;5.53;;;4.53;;
2305;SDS011;1161;51.922;8.896;2023-05-10T04:59:47;8.00;;;4.40;;
2305;SDS011;1161;51.922;8.896;2023-05-10T05:02:16;6.00;;;4.30;;
2305;SDS011;1161;51.922;8.896;2023-05-10T05:04:47;8.03;;;2.80;;
2305;SDS011;1161;51.922;8.896;2023-05-10T05:07:14;2.53;;;2.33;;
2305;SDS011;1161;51.922;8.896;2023-05-10T05:09:41;3.80;;;2.27;;
2305;SDS011;1161;51.922;8.896;2023-05-10T05:12:09;1.73;;;1.57;;
2305;SDS011;1161;51.922;8.896;2023-05-10T05:14:43;2.80;;;2.13;;
2305;SDS011;1161;51.922;8.896;2023-05-10T05:17:13;2.00;;;1.80;;
2305;SDS011;1161;51.922;8.896;2023-05-10T05:19:41;1.90;;;1.80;;
2305;SDS011;1161;51.922;8.896;2023-05-10T05:22:09;3.73;;;2.10;;
2305;SDS011;1161;51.922;8.896;2023-05-10T05:24:39;3.27;;;1.70;;
2305;SDS011;1161;51.922;8.896;2023-05-10T05:27:06;1.93;;;1.83;;
2305;SDS011;1161;51.922;8.896;2023-05-10T05:29:38;2.67;;;1.83;;
2305;SDS011;1161;51.922;8.896;2023-05-10T05:32:04;1.33;;;1.23;;
2305;SDS011;1161;51.922;8.896;2023-05-10T05:34:33;3.10;;;1.87;;
2305;SDS011;1161;51.922;8.896;2023-05-10T05:37:00;1.53;;;1.30;;
2305;SDS011;1161;51.922;8.896;2023-05-10T05:39:27;1.87;;;1.77;;
2305;SDS011;1161;51.922;8.896;2023-05-10T05:41:54;1.53;;;1.43;;
2305;SDS011;1161;51.922;8.896;2023-05-10T05:44:23;1.70;;;1.60;;
2305;SDS011;1161;51.922;8.896;2023-05-10T05:46:52;1.40;;;1.40;;
2305;SDS011;1161;51.922;8.896;2023-05-10T05:49:19;13.57;;;1.37;;
2305;SDS011;1161;51.922;8.896;2023-05-10T05:51:46;3.03;;;1.20;;
2305;SDS011;1161;51.922;8.896;2023-05-10T05:54:15;4.53;;;1.30;;
2305;SDS011;1161;51.922;8.896;2023-05-10T05:56:42;1.70;;;1.60;;
2305;SDS011;1161;51.922;8.896;2023-05-10T05:59:09;1.70;;;1.60;;
2305;SDS011;1161;51.922;8.896;2023-05-10T06:01:37;1.80;;;1.70;;
2305;SDS011;1161;51.922;8.896;2023-05-10T06:04:05;6.93;;;2.17;;
2305;SDS011;1161;51.922;8.896;2023-05-10T06:06:32;2.33;;;2.13;;
2305;SDS011;1161;51.922;8.896;2023-05-10T06:08:59;1.30;;;1.30;;
2305;SDS011;1161;51.922;8.896;2023-05-10T06:11:27;3.23;;;1.53;;
2305;SDS011;1161;51.922;8.896;2023-05-10T06:13:54;1.70;;;1.60;;
2305;SDS011;1161;51.922;8.896;2023-05-10T06:16:22;3.60;;;1.90;;
2305;SDS011;1161;51.922;8.896;2023-05-10T06:18:48;3.10;;;2.93;;
2305;SDS011;1161;51.922;8.896;2023-05-10T06:21:16;2.67;;;2.57;;
2305;SDS011;1161;51.922;8.896;2023-05-10T06:23:44;2.67;;;2.47;;
2305;SDS011;1161;51.922;8.896;2023-05-10T06:26:10;2.17;;;2.07;;
2305;SDS011;1161;51.922;8.896;2023-05-10T06:28:40;2.23;;;2.13;;
2305;SDS011;1161;51.922;8.896;2023-05-10T06:31:07;3.30;;;2.73;;
2305;SDS011;1161;51.922;8.896;2023-05-10T06:33:35;3.70;;;3.40;;
2305;SDS011;1161;51.922;8.896;2023-05-10T06:36:03;4.53;;;2.60;;
2305;SDS011;1161;51.922;8.896;2023-05-10T06:38:31;2.70;;;2.50;;
2305;SDS011;1161;51.922;8.896;2023-05-10T06:40:59;3.23;;;2.93;;
2305;SDS011;1161;51.922;8.896;2023-05-10T06:43:26;2.83;;;2.60;;
2305;SDS011;1161;51.922;8.896;2023-05-10T06:46:00;3.60;;;3.30;;
2305;SDS011;1161;51.922;8.896;2023-05-10T06:48:27;3.17;;;2.53;;
2305;SDS011;1161;51.922;8.896;2023-05-10T06:50:54;3.27;;;2.60;;
2305;SDS011;1161;51.922;8.896;2023-05-10T06:53:21;2.63;;;2.47;;
2305;SDS011;1161;51.922;8.896;2023-05-10T06:55:50;2.23;;;2.03;;
2305;SDS011;1161;51.922;8.896;2023-05-10T06:58:16;1.87;;;1.77;;
2305;SDS011;1161;51.922;8.896;2023-05-10T07:00:43;2.93;;;2.37;;
2305;SDS011;1161;51.922;8.896;2023-05-10T07:03:10;2.97;;;2.67;;
2305;SDS011;1161;51.922;8.896;2023-05-10T07:05:37;4.30;;;2.60;;
2305;SDS011;1161;51.922;8.896;2023-05-10T07:08:03;3.20;;;2.87;;
2305;SDS011;1161;51.922;8.896;2023-05-10T07:10:30;2.33;;;2.23;;
2305;SDS011;1161;51.922;8.896;2023-05-10T07:12:58;5.83;;;3.50;;
2305;SDS011;1161;51.922;8.896;2023-05-10T07:15:25;3.47;;;3.17;;
2305;SDS011;1161;51.922;8.896;2023-05-10T07:17:52;4.10;;;3.03;;
2305;SDS011;1161;51.922;8.896;2023-05-10T07:20:18;3.93;;;3.63;;
2305;SDS011;1161;51.922;8.896;2023-05-10T07:22:45;3.57;;;3.27;;
2305;SDS011;1161;51.922;8.896;2023-05-10T07:25:12;5.50;;;3.20;;
2305;SDS011;1161;51.922;8.896;2023-05-10T07:27:38;3.40;;;3.10;;
2305;SDS011;1161;51.922;8.896;2023-05-10T07:30:14;2.53;;;2.40;;
2305;SDS011;1161;51.922;8.896;2023-05-10T07:32:41;6.50;;;3.43;;
2305;SDS011;1161;51.922;8.896;2023-05-10T07:35:08;3.60;;;3.30;;
2305;SDS011;1161;51.922;8.896;2023-05-10T07:37:34;4.40;;;4.00;;
2305;SDS011;1161;51.922;8.896;2023-05-10T07:40:01;6.10;;;4.07;;
2305;SDS011;1161;51.922;8.896;2023-05-10T07:42:27;5.83;;;3.37;;
2305;SDS011;1161;51.922;8.896;2023-05-10T07:44:54;5.20;;;2.90;;
2305;SDS011;1161;51.922;8.896;2023-05-10T07:47:22;3.50;;;2.53;;
2305;SDS011;1161;51.922;8.896;2023-05-10T07:49:49;3.50;;;2.90;;
2305;SDS011;1161;51.922;8.896;2023-05-10T07:52:15;8.30;;;3.70;;
2305;SDS011;1161;51.922;8.896;2023-05-10T07:54:42;4.13;;;3.83;;
2305;SDS011;1161;51.922;8.896;2023-05-10T07:57:09;4.10;;;3.70;;
2305;SDS011;1161;51.922;8.896;2023-05-10T07:59:36;4.17;;;3.53;;
2305;SDS011;1161;51.922;8.896;2023-05-10T08:02:03;7.23;;;4.00;;
2305;SDS011;1161;51.922;8.896;2023-05-10T08:04:31;15.13;;;4.20;;
2305;SDS011;1161;51.922;8.896;2023-05-10T08:06:57;5.50;;;3.83;;
2305;SDS011;1161;51.922;8.896;2023-05-10T08:09:24;14.73;;;5.47;;
2305;SDS011;1161;51.922;8.896;2023-05-10T08:11:50;10.90;;;5.37;;
2305;SDS011;1161;51.922;8.896;2023-05-10T08:14:17;8.97;;;4.27;;
2305;SDS011;1161;51.922;8.896;2023-05-10T08:16:44;7.67;;;4.83;;
2305;SDS011;1161;51.922;8.896;2023-05-10T08:19:10;5.83;;;5.13;;
2305;SDS011;1161;51.922;8.896;2023-05-10T08:21:38;13.70;;;5.90;;
2305;SDS011;1161;51.922;8.896;2023-05-10T08:24:07;10.40;;;5.60;;
2305;SDS011;1161;51.922;8.896;2023-05-10T08:26:33;14.47;;;6.83;;
2305;SDS011;1161;51.922;8.896;2023-05-10T08:29:00;12.83;;;6.90;;
2305;SDS011;1161;51.922;8.896;2023-05-10T08:31:27;13.00;;;6.20;;
2305;SDS011;1161;51.922;8.896;2023-05-10T08:33:53;11.00;;;6.70;;
2305;SDS011;1161;51.922;8.896;2023-05-10T08:36:20;18.73;;;7.97;;
2305;SDS011;1161;51.922;8.896;2023-05-10T08:38:49;20.40;;;9.73;;
2305;SDS011;1161;51.922;8.896;2023-05-10T08:41:16;20.27;;;7.90;;
2305;SDS011;1161;51.922;8.896;2023-05-10T08:43:43;15.90;;;10.50;;
2305;SDS011;1161;51.922;8.896;2023-05-10T08:46:11;23.43;;;9.63;;
2305;SDS011;1161;51.922;8.896;2023-05-10T08:48:41;19.00;;;9.70;;
2305;SDS011;1161;51.922;8.896;2023-05-10T08:51:08;22.63;;;10.17;;
2305;SDS011;1161;51.922;8.896;2023-05-10T08:53:35;24.93;;;9.97;;
2305;SDS011;1161;51.922;8.896;2023-05-10T08:56:04;17.43;;;9.23;;
2305;SDS011;1161;51.922;8.896;2023-05-10T08:58:31;29.23;;;10.23;;
2305;SDS011;1161;51.922;8.896;2023-05-10T09:00:58;25.93;;;11.10;;
2305;SDS011;1161;51.922;8.896;2023-05-10T09:03:25;29.87;;;10.50;;
2305;SDS011;1161;51.922;8.896;2023-05-10T09:05:52;24.80;;;10.53;;
2305;SDS011;1161;51.922;8.896;2023-05-10T09:08:20;19.90;;;10.60;;
2305;SDS011;1161;51.922;8.896;2023-05-10T09:10:47;29.30;;;12.30;;
2305;SDS011;1161;51.922;8.896;2023-05-10T09:13:15;18.23;;;9.23;;
2305;SDS011;1161;51.922;8.896;2023-05-10T09:15:43;21.90;;;10.97;;
2305;SDS011;1161;51.922;8.896;2023-05-10T09:18:10;22.83;;;11.47;;
2305;SDS011;1161;51.922;8.896;2023-05-10T09:20:36;23.70;;;10.10;;
2305;SDS011;1161;51.922;8.896;2023-05-10T09:23:03;19.37;;;9.80;;
2305;SDS011;1161;51.922;8.896;2023-05-10T09:25:30;17.40;;;9.50;;
2305;SDS011;1161;51.922;8.896;2023-05-10T09:27:58;28.77;;;9.50;;
2305;SDS011;1161;51.922;8.896;2023-05-10T09:30:26;21.73;;;9.93;;
2305;SDS011;1161;51.922;8.896;2023-05-10T09:32:54;21.20;;;9.70;;
2305;SDS011;1161;51.922;8.896;2023-05-10T09:35:22;18.77;;;9.63;;
2305;SDS011;1161;51.922;8.896;2023-05-10T09:37:50;18.70;;;9.27;;
2305;SDS011;1161;51.922;8.896;2023-05-10T09:40:19;24.43;;;10.00;;
2305;SDS011;1161;51.922;8.896;2023-05-10T09:42:54;21.23;;;9.57;;
2305;SDS011;1161;51.922;8.896;2023-05-10T09:45:22;22.10;;;8.00;;
2305;SDS011;1161;51.922;8.896;2023-05-10T09:47:50;15.10;;;8.10;;
2305;SDS011;1161;51.922;8.896;2023-05-10T09:50:18;15.40;;;7.63;;
2305;SDS011;1161;51.922;8.896;2023-05-10T09:52:46;17.03;;;8.97;;
2305;SDS011;1161;51.922;8.896;2023-05-10T09:55:14;17.93;;;8.07;;
2305;SDS011;1161;51.922;8.896;2023-05-10T09:57:41;18.83;;;10.70;;
2305;SDS011;1161;51.922;8.896;2023-05-10T10:00:08;15.13;;;9.03;;
2305;SDS011;1161;51.922;8.896;2023-05-10T10:02:36;18.00;;;10.30;;
2305;SDS011;1161;51.922;8.896;2023-05-10T10:05:05;14.00;;;8.57;;
2305;SDS011;1161;51.922;8.896;2023-05-10T10:07:32;20.93;;;10.33;;
2305;SDS011;1161;51.922;8.896;2023-05-10T10:10:00;27.23;;;11.30;;
2305;SDS011;1161;51.922;8.896;2023-05-10T10:12:27;17.20;;;10.73;;
2305;SDS011;1161;51.922;8.896;2023-05-10T10:14:54;27.70;;;12.13;;
2305;SDS011;1161;51.922;8.896;2023-05-10T10:17:21;23.27;;;12.17;;
2305;SDS011;1161;51.922;8.896;2023-05-10T10:19:48;21.30;;;11.53;;
2305;SDS011;1161;51.922;8.896;2023-05-10T10:22:16;22.07;;;10.70;;
2305;SDS011;1161;51.922;8.896;2023-05-10T10:24:43;29.33;;;10.50;;
2305;SDS011;1161;51.922;8.896;2023-05-10T10:27:14;23.10;;;12.77;;
2305;SDS011;1161;51.922;8.896;2023-05-10T10:29:47;27.03;;;12.53;;
2305;SDS011;1161;51.922;8.896;2023-05-10T10:32:21;26.77;;;13.70;;
2305;SDS011;1161;51.922;8.896;2023-05-10T10:34:53;28.13;;;13.40;;
2305;SDS011;1161;51.922;8.896;2023-05-10T10:37:21;20.53;;;11.57;;
2305;SDS011;1161;51.922;8.896;2023-05-10T10:39:48;22.03;;;11.77;;
2305;SDS011;1161;51.922;8.896;2023-05-10T10:42:15;29.83;;;15.57;;
2305;SDS011;1161;51.922;8.896;2023-05-10T10:45:11;32.77;;;14.67;;
2305;SDS011;1161;51.922;8.896;2023-05-10T10:47:38;31.27;;;13.50;;
2305;SDS011;1161;51.922;8.896;2023-05-10T10:50:05;28.07;;;14.07;;
2305;SDS011;1161;51.922;8.896;2023-05-10T10:52:34;26.20;;;16.13;;
2305;SDS011;1161;51.922;8.896;2023-05-10T10:55:03;34.20;;;12.97;;
2305;SDS011;1161;51.922;8.896;2023-05-10T10:57:32;22.93;;;12.53;;
2305;SDS011;1161;51.922;8.896;2023-05-10T11:03:03;27.27;;;14.57;;
2305;SDS011;1161;51.922;8.896;2023-05-10T11:05:35;24.93;;;12.20;;
2305;SDS011;1161;51.922;8.896;2023-05-10T11:08:11;20.30;;;11.03;;
2305;SDS011;1161;51.922;8.896;2023-05-10T11:10:49;21.60;;;9.20;;
2305;SDS011;1161;51.922;8.896;2023-05-10T11:13:33;27.17;;;11.67;;
2305;SDS011;1161;51.922;8.896;2023-05-10T11:16:11;19.87;;;11.53;;
2305;SDS011;1161;51.922;8.896;2023-05-10T11:18:52;18.10;;;10.80;;
2305;SDS011;1161;51.922;8.896;2023-05-10T11:21:19;24.50;;;8.63;;
2305;SDS011;1161;51.922;8.896;2023-05-10T11:23:51;16.30;;;9.07;;
2305;SDS011;1161;51.922;8.896;2023-05-10T11:26:21;17.73;;;8.80;;
2305;SDS011;1161;51.922;8.896;2023-05-10T11:28:50;18.10;;;10.07;;
2305;SDS011;1161;51.922;8.896;2023-05-10T11:31:19;22.93;;;11.53;;
2305;SDS011;1161;51.922;8.896;2023-05-10T11:33:46;17.53;;;10.10;;
2305;SDS011;1161;51.922;8.896;2023-05-10T11:36:14;19.43;;;10.80;;
2305;SDS011;1161;51.922;8.896;2023-05-10T11:38:42;16.40;;;10.03;;
2305;SDS011;1161;51.922;8.896;2023-05-10T11:41:10;22.80;;;10.10;;
2305;SDS011;1161;51.922;8.896;2023-05-10T11:43:38;10.73;;;6.90;;
2305;SDS011;1161;51.922;8.896;2023-05-10T11:46:04;10.27;;;5.57;;
2305;SDS011;1161;51.922;8.896;2023-05-10T11:48:32;13.13;;;6.67;;
2305;SDS011;1161;51.922;8.896;2023-05-10T11:50:58;17.20;;;7.60;;
2305;SDS011;1161;51.922;8.896;2023-05-10T11:53:27;14.93;;;8.70;;
2305;SDS011;1161;51.922;8.896;2023-05-10T11:56:01;12.13;;;7.53;;
2305;SDS011;1161;51.922;8.896;2023-05-10T11:58:30;13.60;;;7.73;;
2305;SDS011;1161;51.922;8.896;2023-05-10T12:00:56;20.03;;;9.53;;
2305;SDS011;1161;51.922;8.896;2023-05-10T12:03:23;11.63;;;8.43;;
2305;SDS011;1161;51.922;8.896;2023-05-10T12:05:50;14.43;;;8.73;;
2305;SDS011;1161;51.922;8.896;2023-05-10T12:08:19;16.33;;;8.70;;
2305;SDS011;1161;51.922;8.896;2023-05-10T12:10:47;18.10;;;7.23;;
2305;SDS011;1161;51.922;8.896;2023-05-10T12:13:13;12.23;;;7.03;;
2305;SDS011;1161;51.922;8.896;2023-05-10T12:15:42;14.03;;;6.23;;
2305;SDS011;1161;51.922;8.896;2023-05-10T12:18:09;11.83;;;7.60;;
2305;SDS011;1161;51.922;8.896;2023-05-10T12:20:36;9.63;;;7.07;;
2305;SDS011;1161;51.922;8.896;2023-05-10T12:23:03;13.53;;;7.13;;
2305;SDS011;1161;51.922;8.896;2023-05-10T12:25:31;12.00;;;7.80;;
2305;SDS011;1161;51.922;8.896;2023-05-10T12:27:59;19.00;;;7.07;;
2305;SDS011;1161;51.922;8.896;2023-05-10T12:30:26;21.00;;;8.20;;
2305;SDS011;1161;51.922;8.896;2023-05-10T12:32:59;12.47;;;7.50;;
2305;SDS011;1161;51.922;8.896;2023-05-10T12:35:26;15.90;;;9.47;;
2305;SDS011;1161;51.922;8.896;2023-05-10T12:37:52;11.30;;;7.47;;
2305;SDS011;1161;51.922;8.896;2023-05-10T12:40:19;16.80;;;8.43;;
2305;SDS011;1161;51.922;8.896;2023-05-10T12:42:46;12.33;;;7.87;;
2305;SDS011;1161;51.922;8.896;2023-05-10T12:45:13;15.93;;;6.30;;
2305;SDS011;1161;51.922;8.896;2023-05-10T12:47:40;8.80;;;4.90;;
2305;SDS011;1161;51.922;8.896;2023-05-10T12:50:08;6.47;;;4.27;;
2305;SDS011;1161;51.922;8.896;2023-05-10T12:52:36;5.67;;;4.10;;
2305;SDS011;1161;51.922;8.896;2023-05-10T12:55:03;6.17;;;4.13;;
2305;SDS011;1161;51.922;8.896;2023-05-10T12:57:30;10.00;;;4.60;;
2305;SDS011;1161;51.922;8.896;2023-05-10T12:59:56;7.30;;;4.23;;
2305;SDS011;1161;51.922;8.896;2023-05-10T13:02:23;7.50;;;4.30;;
2305;SDS011;1161;51.922;8.896;2023-05-10T13:04:50;10.23;;;4.23;;
2305;SDS011;1161;51.922;8.896;2023-05-10T13:07:18;7.60;;;4.80;;
2305;SDS011;1161;51.922;8.896;2023-05-10T13:09:45;8.70;;;4.30;;
2305;SDS011;1161;51.922;8.896;2023-05-10T13:12:11;6.20;;;4.10;;
2305;SDS011;1161;51.922;8.896;2023-05-10T13:14:38;7.93;;;6.33;;
2305;SDS011;1161;51.922;8.896;2023-05-10T13:17:05;11.73;;;5.53;;
2305;SDS011;1161;51.922;8.896;2023-05-10T13:19:32;8.73;;;5.43;;
2305;SDS011;1161;51.922;8.896;2023-05-10T13:21:58;9.20;;;4.80;;
2305;SDS011;1161;51.922;8.896;2023-05-10T13:24:26;16.30;;;7.97;;
2305;SDS011;1161;51.922;8.896;2023-05-10T13:26:53;10.63;;;7.20;;
2305;SDS011;1161;51.922;8.896;2023-05-10T13:29:20;9.40;;;5.57;;
2305;SDS011;1161;51.922;8.896;2023-05-10T13:31:47;11.80;;;6.80;;
2305;SDS011;1161;51.922;8.896;2023-05-10T13:34:14;9.73;;;5.83;;
2305;SDS011;1161;51.922;8.896;2023-05-10T13:36:41;16.37;;;6.70;;
2305;SDS011;1161;51.922;8.896;2023-05-10T13:39:07;13.33;;;7.50;;
2305;SDS011;1161;51.922;8.896;2023-05-10T13:41:36;13.10;;;7.50;;
2305;SDS011;1161;51.922;8.896;2023-05-10T13:44:03;10.67;;;6.77;;
2305;SDS011;1161;51.922;8.896;2023-05-10T13:46:29;10.20;;;6.23;;
2305;SDS011;1161;51.922;8.896;2023-05-10T13:48:56;15.60;;;8.20;;
2305;SDS011;1161;51.922;8.896;2023-05-10T13:51:23;10.67;;;7.27;;
2305;SDS011;1161;51.922;8.896;2023-05-10T13:53:49;13.00;;;7.07;;
2305;SDS011;1161;51.922;8.896;2023-05-10T13:56:17;10.87;;;7.43;;
2305;SDS011;1161;51.922;8.896;2023-05-10T13:58:45;16.40;;;7.40;;
2305;SDS011;1161;51.922;8.896;2023-05-10T14:01:11;12.00;;;6.40;;
2305;SDS011;1161;51.922;8.896;2023-05-10T14:03:38;14.47;;;6.93;;
2305;SDS011;1161;51.922;8.896;2023-05-10T14:06:04;11.03;;;5.60;;
2305;SDS011;1161;51.922;8.896;2023-05-10T14:08:32;13.97;;;8.33;;
2305;SDS011;1161;51.922;8.896;2023-05-10T14:10:59;10.47;;;5.43;;
2305;SDS011;1161;51.922;8.896;2023-05-10T14:13:26;11.23;;;5.70;;
2305;SDS011;1161;51.922;8.896;2023-05-10T14:15:56;12.20;;;5.33;;
2305;SDS011;1161;51.922;8.896;2023-05-10T14:18:25;10.33;;;4.87;;
2305;SDS011;1161;51.922;8.896;2023-05-10T14:20:52;4.67;;;3.50;;
2305;SDS011;1161;51.922;8.896;2023-05-10T14:23:18;4.37;;;3.97;;
2305;SDS011;1161;51.922;8.896;2023-05-10T14:25:49;14.03;;;5.50;;
2305;SDS011;1161;51.922;8.896;2023-05-10T14:28:15;11.43;;;5.90;;
2305;SDS011;1161;51.922;8.896;2023-05-10T14:30:42;25.33;;;9.67;;
2305;SDS011;1161;51.922;8.896;2023-05-10T14:33:10;20.17;;;8.87;;
2305;SDS011;1161;51.922;8.896;2023-05-10T14:35:37;21.53;;;8.20;;
2305;SDS011;1161;51.922;8.896;2023-05-10T14:38:04;14.67;;;7.23;;
2305;SDS011;1161;51.922;8.896;2023-05-10T14:40:30;8.90;;;5.90;;
2305;SDS011;1161;51.922;8.896;2023-05-10T14:42:57;6.70;;;3.90;;
2305;SDS011;1161;51.922;8.896;2023-05-10T14:45:24;3.80;;;3.00;;
2305;SDS011;1161;51.922;8.896;2023-05-10T14:47:50;3.77;;;3.00;;
2305;SDS011;1161;51.922;8.896;2023-05-10T14:50:18;4.90;;;2.40;;
2305;SDS011;1161;51.922;8.896;2023-05-10T14:52:45;1.90;;;1.80;;
2305;SDS011;1161;51.922;8.896;2023-05-10T14:55:12;1.90;;;1.80;;
2305;SDS011;1161;51.922;8.896;2023-05-10T14:57:38;4.40;;;2.57;;
2305;SDS011;1161;51.922;8.896;2023-05-10T15:00:05;3.03;;;2.30;;
2305;SDS011;1161;51.922;8.896;2023-05-10T15:02:33;2.43;;;2.27;;
2305;SDS011;1161;51.922;8.896;2023-05-10T15:04:59;1.80;;;1.70;;
2305;SDS011;1161;51.922;8.896;2023-05-10T15:07:27;3.13;;;2.83;;
2305;SDS011;1161;51.922;8.896;2023-05-10T15:09:54;4.13;;;2.67;;
2305;SDS011;1161;51.922;8.896;2023-05-10T15:12:21;2.50;;;2.37;;